createdAt,value
2017-12-31T00:00:05.591Z,1.67
2017-12-31T00:02:35.178Z,4.15
2017-12-31T00:05:03.982Z,0.30
2017-12-31T00:07:32.755Z,0.40
2017-12-31T00:10:01.425Z,1.45
2017-12-31T00:12:30.189Z,2.53
2017-12-31T00:14:59.072Z,0.50
2017-12-31T00:17:27.511Z,0.93
2017-12-31T00:19:56.070Z,0.70
2017-12-31T00:22:24.463Z,1.05
2017-12-31T00:24:52.936Z,1.30
2017-12-31T00:27:21.344Z,1.25
2017-12-31T00:29:49.741Z,0.60
2017-12-31T00:32:19.200Z,2.25
2017-12-31T00:34:47.605Z,1.08
2017-12-31T00:37:15.994Z,1.70
2017-12-31T00:39:44.386Z,1.05
2017-12-31T00:42:13.530Z,0.50
2017-12-31T00:44:42.066Z,3.17
2017-12-31T00:47:11.217Z,2.05
2017-12-31T00:49:39.666Z,1.25
2017-12-31T00:52:08.131Z,2.28
2017-12-31T00:54:37.267Z,5.12
2017-12-31T00:57:05.777Z,2.35
2017-12-31T00:59:34.155Z,2.47
2017-12-31T01:02:02.531Z,3.92
2017-12-31T01:04:30.935Z,1.62
2017-12-31T01:07:00.134Z,1.40
2017-12-31T01:09:28.617Z,1.15
2017-12-31T01:11:57.758Z,2.33
2017-12-31T01:14:26.133Z,2.70
2017-12-31T01:16:54.600Z,1.30
2017-12-31T01:19:22.978Z,1.75
2017-12-31T01:21:51.660Z,3.42
2017-12-31T01:24:20.038Z,6.20
2017-12-31T01:26:48.437Z,7.87
2017-12-31T01:29:16.821Z,1.83
2017-12-31T01:31:45.195Z,5.72
2017-12-31T01:34:13.626Z,6.07
2017-12-31T01:36:42.766Z,6.57
2017-12-31T01:39:11.132Z,7.45
2017-12-31T01:41:39.522Z,3.30
2017-12-31T01:44:07.904Z,7.95
2017-12-31T01:46:36.315Z,5.82
2017-12-31T01:49:04.714Z,9.77
2017-12-31T01:51:33.857Z,4.80
2017-12-31T01:54:02.242Z,4.00
2017-12-31T01:56:30.633Z,6.72
2017-12-31T01:58:59.301Z,7.10
2017-12-31T02:01:27.679Z,10.23
2017-12-31T02:03:56.138Z,7.12
2017-12-31T02:06:24.616Z,3.35
2017-12-31T02:08:52.995Z,12.23
2017-12-31T02:11:21.516Z,6.60
2017-12-31T02:13:49.897Z,9.63
2017-12-31T02:16:18.305Z,11.57
2017-12-31T02:18:46.712Z,3.20
2017-12-31T02:21:15.084Z,5.53
2017-12-31T02:23:43.502Z,3.83
2017-12-31T02:26:11.869Z,4.93
2017-12-31T02:28:40.242Z,6.40
2017-12-31T02:31:08.642Z,3.85
2017-12-31T02:33:37.058Z,5.75
2017-12-31T02:36:06.711Z,4.85
2017-12-31T02:38:35.100Z,6.82
2017-12-31T02:41:03.550Z,7.70
2017-12-31T02:43:31.950Z,5.78
2017-12-31T02:46:00.341Z,9.77
2017-12-31T02:48:28.845Z,7.40
2017-12-31T02:50:57.214Z,3.62
2017-12-31T02:53:25.578Z,8.82
2017-12-31T02:55:53.968Z,9.13
2017-12-31T02:58:22.346Z,7.18
2017-12-31T03:00:50.984Z,9.73
2017-12-31T03:03:19.360Z,5.03
2017-12-31T03:05:47.757Z,8.07
2017-12-31T03:08:16.464Z,9.48
2017-12-31T03:10:45.146Z,10.93
2017-12-31T03:13:19.370Z,4.30
2017-12-31T03:15:47.786Z,7.28
2017-12-31T03:18:16.931Z,8.63
2017-12-31T03:20:45.326Z,6.75
2017-12-31T03:23:13.703Z,3.60
2017-12-31T03:25:42.136Z,6.35
2017-12-31T03:28:10.582Z,12.45
2017-12-31T03:30:39.440Z,9.30
2017-12-31T03:33:08.897Z,3.85
2017-12-31T03:35:38.109Z,2.92
2017-12-31T03:38:07.024Z,5.55
2017-12-31T03:40:35.902Z,10.80
2017-12-31T03:43:04.622Z,8.50
2017-12-31T03:45:33.030Z,9.80
2017-12-31T03:48:02.469Z,8.90
2017-12-31T03:50:30.922Z,13.98
2017-12-31T03:53:00.521Z,5.05
2017-12-31T03:55:29.910Z,6.22
2017-12-31T03:57:58.479Z,7.03
2017-12-31T04:00:27.959Z,10.20
2017-12-31T04:02:56.554Z,8.23
2017-12-31T04:05:26.265Z,5.25
2017-12-31T04:07:54.771Z,10.25
2017-12-31T04:10:23.396Z,3.22
2017-12-31T04:12:51.976Z,5.25
2017-12-31T04:15:20.572Z,3.85
2017-12-31T04:17:49.262Z,5.37
2017-12-31T04:20:17.813Z,4.57
2017-12-31T04:22:47.012Z,7.12
2017-12-31T04:25:15.789Z,9.82
2017-12-31T04:27:44.425Z,8.98
2017-12-31T04:30:13.011Z,6.47
2017-12-31T04:32:41.801Z,4.50
2017-12-31T04:35:10.660Z,6.47
2017-12-31T04:37:39.369Z,7.97
2017-12-31T04:40:08.023Z,2.47
2017-12-31T04:42:36.625Z,5.30
2017-12-31T04:45:05.117Z,5.30
2017-12-31T04:47:34.085Z,4.53
2017-12-31T04:50:02.566Z,4.50
2017-12-31T04:52:31.281Z,4.45
2017-12-31T04:55:00.177Z,2.53
2017-12-31T04:57:28.546Z,5.80
2017-12-31T04:59:56.930Z,3.95
2017-12-31T05:02:25.400Z,2.97
2017-12-31T05:04:54.023Z,6.62
2017-12-31T05:07:22.415Z,10.70
2017-12-31T05:09:51.562Z,2.28
2017-12-31T05:12:19.963Z,4.95
2017-12-31T05:14:48.345Z,10.27
2017-12-31T05:17:16.833Z,1.98
2017-12-31T05:19:45.215Z,3.70
2017-12-31T05:22:13.584Z,1.87
2017-12-31T05:24:42.097Z,4.35
2017-12-31T05:27:11.235Z,3.50
2017-12-31T05:29:39.688Z,3.25
2017-12-31T05:32:08.051Z,2.60
2017-12-31T05:34:36.616Z,3.33
2017-12-31T05:37:05.023Z,7.68
2017-12-31T05:39:33.409Z,3.90
2017-12-31T05:42:02.114Z,3.30
2017-12-31T05:44:30.481Z,3.92
2017-12-31T05:46:58.874Z,11.20
2017-12-31T05:49:27.263Z,1.65
2017-12-31T05:51:55.627Z,10.93
2017-12-31T05:54:24.056Z,10.48
2017-12-31T05:56:59.137Z,6.22
2017-12-31T05:59:27.929Z,10.25
2017-12-31T06:01:56.309Z,9.88
2017-12-31T06:04:24.681Z,4.72
2017-12-31T06:06:53.082Z,4.12
2017-12-31T06:09:22.222Z,7.12
2017-12-31T06:11:51.409Z,4.68
2017-12-31T06:14:20.561Z,7.18
2017-12-31T06:16:48.942Z,2.95
2017-12-31T06:19:17.345Z,5.93
2017-12-31T06:21:45.718Z,6.68
2017-12-31T06:24:14.213Z,5.32
2017-12-31T06:26:42.590Z,5.87
2017-12-31T06:29:10.977Z,3.42
2017-12-31T06:31:39.364Z,3.10
2017-12-31T06:34:08.503Z,2.30
2017-12-31T06:36:37.166Z,4.95
2017-12-31T06:39:05.675Z,4.80
2017-12-31T06:41:34.069Z,6.85
2017-12-31T06:44:02.479Z,6.80
2017-12-31T06:46:31.620Z,4.18
2017-12-31T06:49:00.106Z,5.07
2017-12-31T06:51:28.692Z,5.00
2017-12-31T06:53:57.073Z,2.35
2017-12-31T06:56:25.474Z,8.32
2017-12-31T06:58:53.854Z,1.92
2017-12-31T07:01:22.253Z,6.22
2017-12-31T07:03:51.400Z,2.58
2017-12-31T07:06:19.772Z,1.10
2017-12-31T07:08:48.146Z,3.10
2017-12-31T07:11:16.514Z,9.00
2017-12-31T07:13:45.013Z,1.40
2017-12-31T07:16:13.386Z,2.83
2017-12-31T07:18:41.797Z,4.87
2017-12-31T07:21:10.314Z,2.05
2017-12-31T07:23:39.444Z,5.20
2017-12-31T07:26:07.935Z,5.05
2017-12-31T07:28:36.319Z,6.75
2017-12-31T07:31:04.690Z,4.30
2017-12-31T07:33:33.083Z,2.47
2017-12-31T07:36:01.466Z,7.62
2017-12-31T07:38:29.869Z,2.42
2017-12-31T07:40:58.238Z,6.22
2017-12-31T07:43:26.610Z,5.18
2017-12-31T07:45:55.004Z,5.15
2017-12-31T07:48:23.366Z,2.45
2017-12-31T07:50:51.775Z,6.87
2017-12-31T07:53:20.147Z,3.60
2017-12-31T07:55:49.288Z,2.85
2017-12-31T07:58:17.673Z,5.82
2017-12-31T08:00:46.042Z,9.57
2017-12-31T08:03:14.544Z,1.60
2017-12-31T08:05:42.927Z,6.40
2017-12-31T08:08:11.317Z,5.85
2017-12-31T08:10:39.722Z,3.90
2017-12-31T08:13:08.853Z,3.50
2017-12-31T08:15:37.347Z,8.10
2017-12-31T08:18:05.714Z,5.93
2017-12-31T08:20:34.082Z,4.70
2017-12-31T08:23:02.512Z,5.50
2017-12-31T08:25:30.898Z,4.93
2017-12-31T08:27:59.644Z,8.35
2017-12-31T08:30:28.014Z,6.55
2017-12-31T08:32:56.388Z,1.02
2017-12-31T08:35:24.786Z,1.48
2017-12-31T08:37:53.157Z,6.30
2017-12-31T08:40:21.587Z,5.00
2017-12-31T08:42:50.733Z,6.95
2017-12-31T08:45:19.098Z,3.58
2017-12-31T08:47:47.489Z,2.72
2017-12-31T08:50:15.858Z,3.17
2017-12-31T08:52:44.265Z,2.40
2017-12-31T08:55:12.653Z,4.03
2017-12-31T08:57:41.022Z,8.90
2017-12-31T09:00:09.417Z,4.22
2017-12-31T09:02:38.574Z,2.80
2017-12-31T09:05:07.154Z,5.97
2017-12-31T09:07:35.525Z,3.03
2017-12-31T09:10:03.901Z,7.60
2017-12-31T09:12:32.303Z,2.25
2017-12-31T09:15:00.675Z,5.15
2017-12-31T09:17:29.186Z,3.92
2017-12-31T09:19:57.566Z,3.08
2017-12-31T09:22:25.935Z,3.17
2017-12-31T09:24:54.338Z,3.58
2017-12-31T09:27:23.474Z,3.92
2017-12-31T09:29:52.020Z,2.87
2017-12-31T09:32:20.419Z,9.55
2017-12-31T09:34:48.824Z,2.15
2017-12-31T09:37:17.217Z,3.42
2017-12-31T09:39:45.604Z,4.75
2017-12-31T09:42:14.234Z,5.72
2017-12-31T09:44:42.619Z,9.05
2017-12-31T09:47:10.995Z,3.40
2017-12-31T09:49:39.398Z,2.55
2017-12-31T09:52:07.798Z,8.50
2017-12-31T09:54:36.461Z,3.47
2017-12-31T09:57:04.837Z,7.57
2017-12-31T09:59:33.209Z,2.50
2017-12-31T10:02:01.706Z,5.50
2017-12-31T10:04:30.083Z,7.62
2017-12-31T10:06:58.758Z,5.55
2017-12-31T10:09:27.134Z,3.60
2017-12-31T10:11:55.522Z,4.90
2017-12-31T10:14:23.952Z,5.25
2017-12-31T10:16:53.088Z,7.28
2017-12-31T10:19:21.886Z,2.28
2017-12-31T10:21:50.261Z,2.92
2017-12-31T10:24:18.626Z,1.50
2017-12-31T10:26:47.016Z,3.15
2017-12-31T10:29:15.408Z,1.95
2017-12-31T10:31:43.909Z,4.35
2017-12-31T10:34:12.306Z,4.05
2017-12-31T10:36:41.551Z,4.30
2017-12-31T10:39:09.966Z,3.30
2017-12-31T10:41:38.362Z,3.33
2017-12-31T10:44:07.750Z,0.60
2017-12-31T10:46:36.130Z,5.80
2017-12-31T10:49:05.303Z,1.98
2017-12-31T10:51:33.730Z,1.48
2017-12-31T10:54:02.876Z,4.65
2017-12-31T10:56:31.422Z,4.30
2017-12-31T10:59:01.294Z,4.40
2017-12-31T11:01:29.662Z,1.83
2017-12-31T11:03:58.118Z,1.80
2017-12-31T11:06:26.508Z,1.25
2017-12-31T11:08:55.229Z,5.32
2017-12-31T11:11:23.681Z,2.45
2017-12-31T11:13:52.149Z,5.25
2017-12-31T11:16:20.552Z,4.03
2017-12-31T11:18:48.925Z,4.18
2017-12-31T11:21:17.694Z,1.60
2017-12-31T11:23:46.063Z,7.15
2017-12-31T11:26:14.544Z,4.82
2017-12-31T11:28:43.231Z,1.62
2017-12-31T11:31:11.620Z,4.40
2017-12-31T11:33:40.201Z,7.30
2017-12-31T11:36:08.579Z,2.03
2017-12-31T11:38:37.015Z,2.60
2017-12-31T11:41:05.433Z,3.87
2017-12-31T11:43:33.995Z,5.37
2017-12-31T11:46:02.811Z,3.50
2017-12-31T11:48:32.358Z,5.65
2017-12-31T11:51:00.737Z,1.62
2017-12-31T11:53:29.225Z,1.85
2017-12-31T11:55:57.886Z,3.22
2017-12-31T11:58:26.305Z,5.70
2017-12-31T12:00:54.709Z,6.18
2017-12-31T12:03:23.093Z,3.80
2017-12-31T12:05:52.182Z,4.60
2017-12-31T12:08:20.718Z,3.37
2017-12-31T12:10:49.134Z,1.12
2017-12-31T12:13:17.601Z,1.77
2017-12-31T12:15:46.306Z,6.35
2017-12-31T12:18:14.708Z,2.20
2017-12-31T12:20:43.464Z,3.25
2017-12-31T12:23:11.859Z,1.77
2017-12-31T12:25:40.247Z,8.25
2017-12-31T12:28:08.622Z,5.95
2017-12-31T12:30:37.157Z,0.70
2017-12-31T12:33:06.471Z,1.48
2017-12-31T12:35:38.636Z,0.95
2017-12-31T12:38:15.081Z,5.82
2017-12-31T12:40:48.178Z,1.77
2017-12-31T12:43:26.812Z,4.93
2017-12-31T12:46:01.474Z,4.97
2017-12-31T12:48:33.461Z,2.60
2017-12-31T12:51:07.448Z,1.90
2017-12-31T12:53:40.893Z,3.10
2017-12-31T12:56:14.428Z,1.87
2017-12-31T12:58:46.489Z,1.27
2017-12-31T13:01:20.851Z,1.55
2017-12-31T13:03:54.514Z,0.90
2017-12-31T13:06:31.529Z,3.90
2017-12-31T13:09:05.750Z,3.28
2017-12-31T13:11:42.196Z,2.72
2017-12-31T13:14:19.730Z,1.17
2017-12-31T13:16:55.110Z,1.15
2017-12-31T13:19:32.577Z,5.05
2017-12-31T13:22:14.912Z,5.05
2017-12-31T13:24:53.720Z,6.43
2017-12-31T13:27:29.665Z,3.83
2017-12-31T13:30:05.268Z,3.50
2017-12-31T13:32:48.399Z,2.17
2017-12-31T13:35:41.246Z,0.60
2017-12-31T13:38:35.385Z,4.93
2017-12-31T13:41:26.026Z,1.62
2017-12-31T13:44:21.416Z,0.70
2017-12-31T13:47:01.365Z,0.50
2017-12-31T13:49:54.341Z,0.37
2017-12-31T13:52:36.689Z,1.05
2017-12-31T13:55:28.648Z,1.30
2017-12-31T13:58:07.072Z,3.35
2017-12-31T14:01:00.254Z,1.75
2017-12-31T14:03:49.436Z,1.25
2017-12-31T14:06:45.163Z,1.75
2017-12-31T14:09:23.089Z,2.42
2017-12-31T14:12:00.318Z,4.18
2017-12-31T14:14:49.210Z,2.62
2017-12-31T14:17:30.501Z,2.45
2017-12-31T14:20:00.199Z,3.55
2017-12-31T14:22:29.086Z,2.33
2017-12-31T14:24:57.932Z,2.67
2017-12-31T14:27:26.898Z,0.52
2017-12-31T14:29:56.342Z,1.48
2017-12-31T14:32:25.503Z,3.75
2017-12-31T14:34:55.222Z,3.15
2017-12-31T14:37:26.093Z,0.65
2017-12-31T14:39:55.027Z,1.77
2017-12-31T14:42:23.978Z,1.25
2017-12-31T14:44:52.590Z,2.22
2017-12-31T14:47:21.645Z,0.80
2017-12-31T14:49:50.387Z,2.42
2017-12-31T14:52:19.051Z,4.85
2017-12-31T14:54:48.677Z,1.98
2017-12-31T14:57:17.722Z,5.20
2017-12-31T14:59:46.481Z,2.92
2017-12-31T15:02:16.073Z,1.02
2017-12-31T15:04:45.630Z,3.30
2017-12-31T15:07:17.023Z,0.75
2017-12-31T15:09:49.018Z,3.17
2017-12-31T15:12:19.836Z,3.08
2017-12-31T15:14:51.779Z,2.83
2017-12-31T15:17:22.475Z,7.20
2017-12-31T15:19:54.317Z,2.20
2017-12-31T15:22:27.017Z,3.87
2017-12-31T15:24:56.511Z,1.48
2017-12-31T15:27:27.670Z,3.95
2017-12-31T15:30:06.756Z,2.25
2017-12-31T15:32:45.494Z,3.37
2017-12-31T15:35:20.960Z,3.55
2017-12-31T15:37:59.748Z,6.25
2017-12-31T15:40:37.145Z,8.00
2017-12-31T15:43:13.700Z,4.82
2017-12-31T15:45:50.544Z,3.28
2017-12-31T15:48:29.174Z,1.77
2017-12-31T15:50:58.302Z,1.95
2017-12-31T15:53:26.779Z,0.70
2017-12-31T15:55:55.198Z,2.58
2017-12-31T15:58:23.579Z,8.45
2017-12-31T16:00:51.966Z,7.82
2017-12-31T16:03:21.493Z,5.25
2017-12-31T16:05:50.282Z,3.62
2017-12-31T16:08:18.655Z,4.85
2017-12-31T16:10:47.826Z,1.58
2017-12-31T16:13:16.209Z,12.90
2017-12-31T16:15:45.050Z,2.95
2017-12-31T16:18:13.525Z,2.25
2017-12-31T16:20:42.015Z,4.47
2017-12-31T16:23:10.859Z,7.60
2017-12-31T16:25:40.103Z,13.88
2017-12-31T16:28:09.918Z,7.43
2017-12-31T16:30:38.286Z,3.03
2017-12-31T16:33:06.658Z,4.28
2017-12-31T16:35:35.070Z,10.00
2017-12-31T16:38:03.443Z,13.68
2017-12-31T16:40:32.103Z,4.62
2017-12-31T16:43:00.505Z,8.10
2017-12-31T16:45:29.681Z,5.70
2017-12-31T16:47:58.353Z,5.60
2017-12-31T16:50:26.944Z,7.82
2017-12-31T16:52:55.683Z,5.53
2017-12-31T16:55:25.043Z,9.23
2017-12-31T16:57:53.645Z,8.52
2017-12-31T17:00:23.338Z,10.35
2017-12-31T17:02:55.230Z,9.93
2017-12-31T17:05:24.728Z,9.88
2017-12-31T17:07:54.333Z,14.02
2017-12-31T17:10:27.402Z,10.95
2017-12-31T17:12:56.672Z,14.60
2017-12-31T17:15:32.208Z,6.80
2017-12-31T17:18:01.277Z,10.93
2017-12-31T17:20:29.926Z,16.50
2017-12-31T17:22:58.670Z,22.80
2017-12-31T17:25:27.373Z,17.48
2017-12-31T17:27:56.032Z,22.90
2017-12-31T17:30:24.642Z,15.85
2017-12-31T17:32:53.436Z,24.08
2017-12-31T17:35:22.534Z,24.25
2017-12-31T17:37:52.109Z,12.52
2017-12-31T17:40:21.530Z,10.65
2017-12-31T17:45:48.193Z,11.07
2017-12-31T17:48:23.852Z,9.38
2017-12-31T17:50:53.544Z,7.60
2017-12-31T17:53:22.730Z,11.82
2017-12-31T17:55:52.065Z,11.30
2017-12-31T17:58:20.646Z,10.05
2017-12-31T18:00:49.301Z,17.15
2017-12-31T18:03:17.936Z,21.33
2017-12-31T18:05:46.733Z,15.45
2017-12-31T18:08:15.388Z,16.42
2017-12-31T18:10:43.996Z,18.02
2017-12-31T18:13:12.626Z,18.73
2017-12-31T18:15:41.274Z,12.63
2017-12-31T18:18:09.998Z,17.35
2017-12-31T18:20:38.599Z,17.05
2017-12-31T18:23:07.224Z,13.88
2017-12-31T18:25:35.900Z,18.10
2017-12-31T18:28:04.544Z,15.40
2017-12-31T18:30:33.436Z,11.85
2017-12-31T18:33:02.063Z,12.05
2017-12-31T18:35:30.653Z,14.73
2017-12-31T18:37:59.314Z,18.55
2017-12-31T18:40:27.924Z,12.45
2017-12-31T18:42:57.333Z,11.60
2017-12-31T18:45:26.678Z,15.43
2017-12-31T18:47:55.348Z,14.60
2017-12-31T18:50:23.921Z,15.80
2017-12-31T18:52:52.496Z,15.50
2017-12-31T18:55:21.917Z,10.05
2017-12-31T18:57:50.529Z,16.00
2017-12-31T19:00:19.385Z,13.60
2017-12-31T19:02:48.023Z,20.52
2017-12-31T19:05:16.805Z,20.55
2017-12-31T19:07:45.529Z,20.27
2017-12-31T19:10:14.888Z,22.48
2017-12-31T19:12:43.556Z,39.78
2017-12-31T19:15:12.137Z,22.25
2017-12-31T19:17:40.719Z,23.75
2017-12-31T19:20:09.388Z,23.77
2017-12-31T19:22:38.020Z,33.95
2017-12-31T19:25:06.766Z,21.55
2017-12-31T19:27:35.361Z,14.70
2017-12-31T19:30:03.959Z,16.80
2017-12-31T19:32:32.364Z,24.92
2017-12-31T19:35:00.755Z,25.15
2017-12-31T19:37:29.496Z,25.58
2017-12-31T19:39:57.874Z,19.65
2017-12-31T19:42:26.243Z,21.92
2017-12-31T19:44:54.627Z,18.33
2017-12-31T19:47:22.993Z,27.08
2017-12-31T19:49:51.569Z,19.92
2017-12-31T19:52:19.941Z,25.37
2017-12-31T19:54:48.407Z,27.15
2017-12-31T19:57:16.805Z,21.08
2017-12-31T19:59:45.943Z,24.33
2017-12-31T20:02:14.396Z,39.63
2017-12-31T20:04:42.794Z,38.42
2017-12-31T20:07:11.656Z,30.40
2017-12-31T20:09:40.042Z,21.45
2017-12-31T20:12:08.417Z,25.10
2017-12-31T20:14:36.814Z,33.83
2017-12-31T20:17:05.205Z,32.08
2017-12-31T20:19:33.875Z,39.45
2017-12-31T20:22:02.427Z,31.52
2017-12-31T20:24:31.574Z,28.70
2017-12-31T20:27:00.088Z,31.05
2017-12-31T20:29:28.488Z,31.40
2017-12-31T20:31:57.062Z,25.60
2017-12-31T20:34:25.484Z,35.28
2017-12-31T20:36:55.802Z,31.00
2017-12-31T20:39:24.166Z,29.55
2017-12-31T20:41:52.758Z,31.05
2017-12-31T20:44:21.311Z,34.28
2017-12-31T20:46:50.811Z,34.53
2017-12-31T20:49:19.482Z,37.13
2017-12-31T20:51:48.337Z,41.35
2017-12-31T20:54:16.950Z,30.73
2017-12-31T20:56:45.333Z,39.45
2017-12-31T20:59:13.752Z,45.40
2017-12-31T21:01:42.163Z,40.40
2017-12-31T21:04:10.827Z,48.38
2017-12-31T21:06:40.828Z,36.00
2017-12-31T21:09:11.217Z,36.20
2017-12-31T21:11:39.924Z,47.80
2017-12-31T21:14:09.942Z,44.42
2017-12-31T21:16:38.365Z,48.55
2017-12-31T21:19:07.501Z,41.80
2017-12-31T21:21:36.685Z,68.47
2017-12-31T21:24:05.056Z,46.92
2017-12-31T21:26:33.449Z,194.00
2017-12-31T21:29:01.875Z,58.87
2017-12-31T21:31:30.455Z,42.08
2017-12-31T21:33:59.695Z,44.05
2017-12-31T21:36:28.334Z,58.25
2017-12-31T21:38:56.939Z,39.47
2017-12-31T21:41:25.690Z,48.17
2017-12-31T21:43:54.579Z,55.22
2017-12-31T21:46:22.990Z,52.28
2017-12-31T21:48:51.439Z,45.22
2017-12-31T21:51:20.183Z,49.15
2017-12-31T21:53:49.369Z,57.45
2017-12-31T21:56:17.861Z,51.30
2017-12-31T21:58:46.276Z,66.82
2017-12-31T22:01:15.517Z,47.03
2017-12-31T22:03:43.938Z,58.08
2017-12-31T22:06:12.374Z,50.03
2017-12-31T22:08:40.845Z,56.40
2017-12-31T22:11:09.242Z,46.97
2017-12-31T22:13:37.998Z,46.63
2017-12-31T22:16:07.222Z,46.10
2017-12-31T22:18:35.611Z,51.00
2017-12-31T22:21:04.081Z,50.53
2017-12-31T22:23:32.469Z,39.38
2017-12-31T22:26:01.055Z,40.10
2017-12-31T22:28:29.538Z,47.50
2017-12-31T22:30:57.925Z,44.05
2017-12-31T22:33:26.599Z,41.58
2017-12-31T22:35:54.974Z,46.75
2017-12-31T22:38:23.406Z,53.65
2017-12-31T22:40:51.863Z,50.97
2017-12-31T22:43:20.263Z,37.10
2017-12-31T22:45:49.610Z,46.85
2017-12-31T22:48:17.990Z,55.22
2017-12-31T22:50:46.366Z,37.83
2017-12-31T22:53:14.757Z,51.40
2017-12-31T22:58:18.525Z,56.97
2017-12-31T23:00:46.900Z,53.97
2017-12-31T23:03:16.049Z,60.75
2017-12-31T23:05:45.225Z,115.97
2017-12-31T23:08:13.589Z,70.93
2017-12-31T23:10:42.031Z,845.35
2017-12-31T23:13:12.142Z,469.77
2017-12-31T23:15:40.525Z,430.95
2017-12-31T23:18:08.927Z,208.02
2017-12-31T23:20:38.089Z,190.48
2017-12-31T23:23:06.612Z,180.98
2017-12-31T23:25:34.993Z,223.18
2017-12-31T23:28:03.406Z,224.02
2017-12-31T23:30:31.815Z,217.60
2017-12-31T23:33:00.198Z,290.12
2017-12-31T23:35:28.633Z,306.45
2017-12-31T23:37:57.002Z,300.33
2017-12-31T23:40:25.378Z,324.08
2017-12-31T23:42:53.770Z,362.00
2017-12-31T23:45:22.143Z,400.87
2017-12-31T23:47:50.842Z,389.92
2017-12-31T23:50:19.230Z,442.75
2017-12-31T23:52:47.623Z,444.40
2017-12-31T23:55:16.038Z,458.87
2017-12-31T23:57:45.182Z,458.55
